sensor_id;sensor_type;location;lat;lon;timestamp;temperature;humidity
68922;DHT22;55959;51.244;5.724;2023-06-22T00:02:14;25.20;47.00
68922;DHT22;55959;51.244;5.724;2023-06-22T00:04:40;25.20;47.00
68922;DHT22;55959;51.244;5.724;2023-06-22T00:07:06;25.20;47.10
68922;DHT22;55959;51.244;5.724;2023-06-22T00:09:32;25.10;47.10
68922;DHT22;55959;51.244;5.724;2023-06-22T00:11:58;25.10;47.30
68922;DHT22;55959;51.244;5.724;2023-06-22T00:14:24;25.10;47.40
68922;DHT22;55959;51.244;5.724;2023-06-22T00:16:50;25.00;47.40
68922;DHT22;55959;51.244;5.724;2023-06-22T00:19:25;25.00;47.50
68922;DHT22;55959;51.244;5.724;2023-06-22T00:21:51;25.00;47.60
68922;DHT22;55959;51.244;5.724;2023-06-22T00:24:20;24.90;47.70
68922;DHT22;55959;51.244;5.724;2023-06-22T00:26:48;24.90;47.80
68922;DHT22;55959;51.244;5.724;2023-06-22T00:29:14;24.90;48.10
68922;DHT22;55959;51.244;5.724;2023-06-22T00:31:40;24.90;48.00
68922;DHT22;55959;51.244;5.724;2023-06-22T00:34:06;24.90;48.10
68922;DHT22;55959;51.244;5.724;2023-06-22T00:36:36;24.80;48.30
68922;DHT22;55959;51.244;5.724;2023-06-22T00:39:03;24.80;48.60
68922;DHT22;55959;51.244;5.724;2023-06-22T00:41:29;24.80;48.80
68922;DHT22;55959;51.244;5.724;2023-06-22T00:43:55;24.70;48.80
68922;DHT22;55959;51.244;5.724;2023-06-22T00:46:21;24.70;49.40
68922;DHT22;55959;51.244;5.724;2023-06-22T00:48:48;24.70;49.50
68922;DHT22;55959;51.244;5.724;2023-06-22T00:51:14;24.60;49.50
68922;DHT22;55959;51.244;5.724;2023-06-22T00:53:41;24.60;49.70
68922;DHT22;55959;51.244;5.724;2023-06-22T00:56:08;24.60;49.80
68922;DHT22;55959;51.244;5.724;2023-06-22T00:58:36;24.60;49.90
68922;DHT22;55959;51.244;5.724;2023-06-22T01:01:02;24.50;49.90
68922;DHT22;55959;51.244;5.724;2023-06-22T01:03:28;24.60;50.20
68922;DHT22;55959;51.244;5.724;2023-06-22T01:06:00;24.50;50.90
68922;DHT22;55959;51.244;5.724;2023-06-22T01:08:49;24.50;50.50
68922;DHT22;55959;51.244;5.724;2023-06-22T01:11:26;24.40;50.60
68922;DHT22;55959;51.244;5.724;2023-06-22T01:14:42;24.40;50.80
68922;DHT22;55959;51.244;5.724;2023-06-22T01:16:48;24.40;51.10
68922;DHT22;55959;51.244;5.724;2023-06-22T01:19:28;24.40;51.20
68922;DHT22;55959;51.244;5.724;2023-06-22T01:22:00;24.40;51.30
68922;DHT22;55959;51.244;5.724;2023-06-22T01:25:11;24.30;51.40
68922;DHT22;55959;51.244;5.724;2023-06-22T01:27:40;24.30;51.70
68922;DHT22;55959;51.244;5.724;2023-06-22T01:30:47;24.30;52.00
68922;DHT22;55959;51.244;5.724;2023-06-22T01:33:15;24.30;52.20
68922;DHT22;55959;51.244;5.724;2023-06-22T01:35:41;24.30;52.30
68922;DHT22;55959;51.244;5.724;2023-06-22T01:38:08;24.30;52.40
68922;DHT22;55959;51.244;5.724;2023-06-22T01:40:36;24.30;52.50
68922;DHT22;55959;51.244;5.724;2023-06-22T01:43:03;24.20;52.70
68922;DHT22;55959;51.244;5.724;2023-06-22T01:45:29;24.30;52.80
68922;DHT22;55959;51.244;5.724;2023-06-22T01:47:56;24.20;52.80
68922;DHT22;55959;51.244;5.724;2023-06-22T01:50:22;24.20;52.90
68922;DHT22;55959;51.244;5.724;2023-06-22T01:52:47;24.20;52.90
68922;DHT22;55959;51.244;5.724;2023-06-22T01:55:13;24.20;53.00
68922;DHT22;55959;51.244;5.724;2023-06-22T01:57:39;24.20;53.00
68922;DHT22;55959;51.244;5.724;2023-06-22T02:00:11;24.20;53.10
68922;DHT22;55959;51.244;5.724;2023-06-22T02:02:46;24.20;53.20
68922;DHT22;55959;51.244;5.724;2023-06-22T02:05:19;24.20;53.30
68922;DHT22;55959;51.244;5.724;2023-06-22T02:08:11;24.10;53.30
68922;DHT22;55959;51.244;5.724;2023-06-22T02:10:44;24.20;53.50
68922;DHT22;55959;51.244;5.724;2023-06-22T02:13:11;24.10;53.70
68922;DHT22;55959;51.244;5.724;2023-06-22T02:15:38;24.10;53.80
68922;DHT22;55959;51.244;5.724;2023-06-22T02:18:04;24.10;54.10
68922;DHT22;55959;51.244;5.724;2023-06-22T02:20:30;24.10;54.10
68922;DHT22;55959;51.244;5.724;2023-06-22T02:22:56;24.10;54.30
68922;DHT22;55959;51.244;5.724;2023-06-22T02:25:22;24.00;54.40
68922;DHT22;55959;51.244;5.724;2023-06-22T02:27:48;24.00;54.40
68922;DHT22;55959;51.244;5.724;2023-06-22T02:30:14;24.00;54.60
68922;DHT22;55959;51.244;5.724;2023-06-22T02:32:41;24.00;54.60
68922;DHT22;55959;51.244;5.724;2023-06-22T02:35:08;24.00;54.80
68922;DHT22;55959;51.244;5.724;2023-06-22T02:37:38;23.90;54.80
68922;DHT22;55959;51.244;5.724;2023-06-22T02:40:08;23.90;54.90
68922;DHT22;55959;51.244;5.724;2023-06-22T02:42:40;23.90;54.90
68922;DHT22;55959;51.244;5.724;2023-06-22T02:45:06;23.90;54.90
68922;DHT22;55959;51.244;5.724;2023-06-22T02:47:32;23.90;54.90
68922;DHT22;55959;51.244;5.724;2023-06-22T02:49:57;23.90;55.00
68922;DHT22;55959;51.244;5.724;2023-06-22T02:52:23;23.90;55.20
68922;DHT22;55959;51.244;5.724;2023-06-22T02:54:49;23.90;55.20
68922;DHT22;55959;51.244;5.724;2023-06-22T02:57:15;23.80;55.20
68922;DHT22;55959;51.244;5.724;2023-06-22T02:59:41;23.80;55.30
68922;DHT22;55959;51.244;5.724;2023-06-22T03:02:08;23.90;55.30
68922;DHT22;55959;51.244;5.724;2023-06-22T03:04:35;23.80;55.30
68922;DHT22;55959;51.244;5.724;2023-06-22T03:07:01;23.80;55.40
68922;DHT22;55959;51.244;5.724;2023-06-22T03:09:28;23.80;55.50
68922;DHT22;55959;51.244;5.724;2023-06-22T03:11:54;23.70;56.10
68922;DHT22;55959;51.244;5.724;2023-06-22T03:14:20;23.70;55.60
68922;DHT22;55959;51.244;5.724;2023-06-22T03:16:46;23.70;55.60
68922;DHT22;55959;51.244;5.724;2023-06-22T03:19:12;23.70;55.80
68922;DHT22;55959;51.244;5.724;2023-06-22T03:21:39;23.70;55.90
68922;DHT22;55959;51.244;5.724;2023-06-22T03:24:06;23.70;56.00
68922;DHT22;55959;51.244;5.724;2023-06-22T03:26:32;23.70;56.10
68922;DHT22;55959;51.244;5.724;2023-06-22T03:28:58;23.70;56.10
68922;DHT22;55959;51.244;5.724;2023-06-22T03:31:25;23.60;56.10
68922;DHT22;55959;51.244;5.724;2023-06-22T03:33:51;23.70;56.20
68922;DHT22;55959;51.244;5.724;2023-06-22T03:36:17;23.60;56.20
68922;DHT22;55959;51.244;5.724;2023-06-22T03:38:48;23.60;56.40
68922;DHT22;55959;51.244;5.724;2023-06-22T03:41:15;23.60;56.30
68922;DHT22;55959;51.244;5.724;2023-06-22T03:43:41;23.60;56.50
68922;DHT22;55959;51.244;5.724;2023-06-22T03:46:06;23.60;56.70
68922;DHT22;55959;51.244;5.724;2023-06-22T03:48:32;23.50;56.80
68922;DHT22;55959;51.244;5.724;2023-06-22T03:51:04;23.50;56.90
68922;DHT22;55959;51.244;5.724;2023-06-22T03:53:30;23.50;56.90
68922;DHT22;55959;51.244;5.724;2023-06-22T03:55:56;23.50;56.80
68922;DHT22;55959;51.244;5.724;2023-06-22T03:58:22;23.50;57.00
68922;DHT22;55959;51.244;5.724;2023-06-22T04:00:49;23.40;56.90
68922;DHT22;55959;51.244;5.724;2023-06-22T04:03:17;23.40;57.00
68922;DHT22;55959;51.244;5.724;2023-06-22T04:05:46;23.40;56.90
68922;DHT22;55959;51.244;5.724;2023-06-22T04:08:14;23.40;56.90
68922;DHT22;55959;51.244;5.724;2023-06-22T04:10:41;23.40;56.90
68922;DHT22;55959;51.244;5.724;2023-06-22T04:13:07;23.40;57.10
68922;DHT22;55959;51.244;5.724;2023-06-22T04:15:33;23.40;57.10
68922;DHT22;55959;51.244;5.724;2023-06-22T04:17:58;23.40;57.20
68922;DHT22;55959;51.244;5.724;2023-06-22T04:20:24;23.40;57.30
68922;DHT22;55959;51.244;5.724;2023-06-22T04:22:53;23.30;57.30
68922;DHT22;55959;51.244;5.724;2023-06-22T04:25:19;23.30;57.40
68922;DHT22;55959;51.244;5.724;2023-06-22T04:27:46;23.30;57.60
68922;DHT22;55959;51.244;5.724;2023-06-22T04:30:12;23.30;57.60
68922;DHT22;55959;51.244;5.724;2023-06-22T04:32:40;23.30;57.80
68922;DHT22;55959;51.244;5.724;2023-06-22T04:35:06;23.30;57.90
68922;DHT22;55959;51.244;5.724;2023-06-22T04:37:34;23.30;58.00
68922;DHT22;55959;51.244;5.724;2023-06-22T04:39:59;23.30;57.90
68922;DHT22;55959;51.244;5.724;2023-06-22T04:42:29;23.30;58.00
68922;DHT22;55959;51.244;5.724;2023-06-22T04:44:55;23.30;58.00
68922;DHT22;55959;51.244;5.724;2023-06-22T04:47:21;23.30;58.00
68922;DHT22;55959;51.244;5.724;2023-06-22T04:49:47;23.30;58.30
68922;DHT22;55959;51.244;5.724;2023-06-22T04:52:13;23.30;58.40
68922;DHT22;55959;51.244;5.724;2023-06-22T04:54:45;23.30;58.40
68922;DHT22;55959;51.244;5.724;2023-06-22T04:57:13;23.30;58.40
68922;DHT22;55959;51.244;5.724;2023-06-22T04:59:39;23.30;58.50
68922;DHT22;55959;51.244;5.724;2023-06-22T05:02:07;23.30;58.60
68922;DHT22;55959;51.244;5.724;2023-06-22T05:04:33;23.30;58.60
68922;DHT22;55959;51.244;5.724;2023-06-22T05:07:01;23.40;58.70
68922;DHT22;55959;51.244;5.724;2023-06-22T05:09:28;23.40;58.80
68922;DHT22;55959;51.244;5.724;2023-06-22T05:11:55;23.40;58.70
68922;DHT22;55959;51.244;5.724;2023-06-22T05:14:22;23.40;58.70
68922;DHT22;55959;51.244;5.724;2023-06-22T05:16:48;23.40;58.70
68922;DHT22;55959;51.244;5.724;2023-06-22T05:19:15;23.50;58.80
68922;DHT22;55959;51.244;5.724;2023-06-22T05:21:41;23.50;58.80
68922;DHT22;55959;51.244;5.724;2023-06-22T05:24:07;23.50;58.90
68922;DHT22;55959;51.244;5.724;2023-06-22T05:26:34;23.50;58.80
68922;DHT22;55959;51.244;5.724;2023-06-22T05:29:01;23.50;58.80
68922;DHT22;55959;51.244;5.724;2023-06-22T05:31:28;23.50;58.80
68922;DHT22;55959;51.244;5.724;2023-06-22T05:33:55;23.50;58.80
68922;DHT22;55959;51.244;5.724;2023-06-22T05:36:21;23.50;58.80
68922;DHT22;55959;51.244;5.724;2023-06-22T05:38:51;23.50;58.70
68922;DHT22;55959;51.244;5.724;2023-06-22T05:41:17;23.50;58.80
68922;DHT22;55959;51.244;5.724;2023-06-22T05:43:43;23.60;58.90
68922;DHT22;55959;51.244;5.724;2023-06-22T05:46:09;23.60;58.90
68922;DHT22;55959;51.244;5.724;2023-06-22T05:48:34;23.60;58.90
68922;DHT22;55959;51.244;5.724;2023-06-22T05:51:00;23.60;59.00
68922;DHT22;55959;51.244;5.724;2023-06-22T05:53:26;23.60;59.00
68922;DHT22;55959;51.244;5.724;2023-06-22T05:55:52;23.60;59.00
68922;DHT22;55959;51.244;5.724;2023-06-22T05:58:17;23.60;59.00
68922;DHT22;55959;51.244;5.724;2023-06-22T06:00:43;23.70;59.00
68922;DHT22;55959;51.244;5.724;2023-06-22T06:03:10;23.70;59.10
68922;DHT22;55959;51.244;5.724;2023-06-22T06:05:36;23.70;59.10
68922;DHT22;55959;51.244;5.724;2023-06-22T06:08:05;23.70;59.10
68922;DHT22;55959;51.244;5.724;2023-06-22T06:10:32;23.70;59.20
68922;DHT22;55959;51.244;5.724;2023-06-22T06:12:59;23.70;59.10
68922;DHT22;55959;51.244;5.724;2023-06-22T06:15:28;23.70;59.20
68922;DHT22;55959;51.244;5.724;2023-06-22T06:17:54;23.80;59.20
68922;DHT22;55959;51.244;5.724;2023-06-22T06:20:24;23.80;59.20
68922;DHT22;55959;51.244;5.724;2023-06-22T06:22:51;23.80;59.20
68922;DHT22;55959;51.244;5.724;2023-06-22T06:25:17;23.80;59.20
68922;DHT22;55959;51.244;5.724;2023-06-22T06:27:50;23.80;59.30
68922;DHT22;55959;51.244;5.724;2023-06-22T06:30:18;23.80;59.40
68922;DHT22;55959;51.244;5.724;2023-06-22T06:32:44;23.90;59.40
68922;DHT22;55959;51.244;5.724;2023-06-22T06:35:12;23.80;59.20
68922;DHT22;55959;51.244;5.724;2023-06-22T06:37:40;23.80;59.20
68922;DHT22;55959;51.244;5.724;2023-06-22T06:40:08;23.90;59.30
68922;DHT22;55959;51.244;5.724;2023-06-22T06:42:43;23.90;59.40
68922;DHT22;55959;51.244;5.724;2023-06-22T06:45:21;23.90;59.20
68922;DHT22;55959;51.244;5.724;2023-06-22T06:47:48;23.90;59.30
68922;DHT22;55959;51.244;5.724;2023-06-22T06:50:16;23.90;59.20
68922;DHT22;55959;51.244;5.724;2023-06-22T06:52:42;23.90;59.20
68922;DHT22;55959;51.244;5.724;2023-06-22T06:55:09;23.90;59.20
68922;DHT22;55959;51.244;5.724;2023-06-22T06:57:39;24.00;59.20
68922;DHT22;55959;51.244;5.724;2023-06-22T07:00:10;24.00;59.20
68922;DHT22;55959;51.244;5.724;2023-06-22T07:02:39;24.00;59.30
68922;DHT22;55959;51.244;5.724;2023-06-22T07:05:06;24.10;59.40
68922;DHT22;55959;51.244;5.724;2023-06-22T07:07:33;24.10;59.40
68922;DHT22;55959;51.244;5.724;2023-06-22T07:09:59;24.10;59.40
68922;DHT22;55959;51.244;5.724;2023-06-22T07:12:25;24.10;59.40
68922;DHT22;55959;51.244;5.724;2023-06-22T07:14:52;24.20;59.40
68922;DHT22;55959;51.244;5.724;2023-06-22T07:17:18;24.20;59.60
68922;DHT22;55959;51.244;5.724;2023-06-22T07:19:44;24.20;59.70
68922;DHT22;55959;51.244;5.724;2023-06-22T07:22:11;24.30;59.80
68922;DHT22;55959;51.244;5.724;2023-06-22T07:24:36;24.30;59.70
68922;DHT22;55959;51.244;5.724;2023-06-22T07:27:03;24.30;59.90
68922;DHT22;55959;51.244;5.724;2023-06-22T07:29:31;24.30;59.90
68922;DHT22;55959;51.244;5.724;2023-06-22T07:31:57;24.40;59.90
68922;DHT22;55959;51.244;5.724;2023-06-22T07:34:23;24.30;60.00
68922;DHT22;55959;51.244;5.724;2023-06-22T07:36:49;24.40;60.00
68922;DHT22;55959;51.244;5.724;2023-06-22T07:39:15;24.30;60.10
68922;DHT22;55959;51.244;5.724;2023-06-22T07:41:42;24.40;60.50
68922;DHT22;55959;51.244;5.724;2023-06-22T07:44:08;24.40;60.50
68922;DHT22;55959;51.244;5.724;2023-06-22T07:46:34;24.40;60.60
68922;DHT22;55959;51.244;5.724;2023-06-22T07:49:00;24.40;60.50
68922;DHT22;55959;51.244;5.724;2023-06-22T07:51:26;24.40;60.60
68922;DHT22;55959;51.244;5.724;2023-06-22T07:53:52;24.40;60.60
68922;DHT22;55959;51.244;5.724;2023-06-22T07:56:18;24.40;60.60
68922;DHT22;55959;51.244;5.724;2023-06-22T07:58:46;24.40;60.50
68922;DHT22;55959;51.244;5.724;2023-06-22T08:01:16;24.50;60.50
68922;DHT22;55959;51.244;5.724;2023-06-22T08:03:42;24.50;60.50
68922;DHT22;55959;51.244;5.724;2023-06-22T08:06:09;24.50;60.30
68922;DHT22;55959;51.244;5.724;2023-06-22T08:08:39;24.50;60.40
68922;DHT22;55959;51.244;5.724;2023-06-22T08:11:05;24.50;60.50
68922;DHT22;55959;51.244;5.724;2023-06-22T08:13:31;24.50;60.80
68922;DHT22;55959;51.244;5.724;2023-06-22T08:15:58;24.60;60.70
68922;DHT22;55959;51.244;5.724;2023-06-22T08:18:24;24.60;60.50
68922;DHT22;55959;51.244;5.724;2023-06-22T08:20:50;24.70;60.50
68922;DHT22;55959;51.244;5.724;2023-06-22T08:23:15;24.70;60.50
68922;DHT22;55959;51.244;5.724;2023-06-22T08:25:41;24.70;60.50
68922;DHT22;55959;51.244;5.724;2023-06-22T08:28:07;24.80;60.70
68922;DHT22;55959;51.244;5.724;2023-06-22T08:30:33;24.90;60.30
68922;DHT22;55959;51.244;5.724;2023-06-22T08:32:59;24.90;60.20
68922;DHT22;55959;51.244;5.724;2023-06-22T08:35:24;25.00;60.60
68922;DHT22;55959;51.244;5.724;2023-06-22T08:37:51;25.00;59.50
68922;DHT22;55959;51.244;5.724;2023-06-22T08:40:22;25.00;59.40
68922;DHT22;55959;51.244;5.724;2023-06-22T08:42:48;25.10;59.40
68922;DHT22;55959;51.244;5.724;2023-06-22T08:45:15;25.20;59.30
68922;DHT22;55959;51.244;5.724;2023-06-22T08:47:41;25.20;59.00
68922;DHT22;55959;51.244;5.724;2023-06-22T08:50:08;25.20;58.90
68922;DHT22;55959;51.244;5.724;2023-06-22T08:52:37;25.30;58.80
68922;DHT22;55959;51.244;5.724;2023-06-22T08:55:04;25.30;58.80
68922;DHT22;55959;51.244;5.724;2023-06-22T08:57:30;25.40;58.70
68922;DHT22;55959;51.244;5.724;2023-06-22T08:59:58;25.40;58.60
68922;DHT22;55959;51.244;5.724;2023-06-22T09:02:25;25.40;58.50
68922;DHT22;55959;51.244;5.724;2023-06-22T09:04:51;25.40;58.50
68922;DHT22;55959;51.244;5.724;2023-06-22T09:07:21;25.50;58.60
68922;DHT22;55959;51.244;5.724;2023-06-22T09:09:49;25.50;58.50
68922;DHT22;55959;51.244;5.724;2023-06-22T09:12:15;25.60;58.50
68922;DHT22;55959;51.244;5.724;2023-06-22T09:14:40;25.60;58.50
68922;DHT22;55959;51.244;5.724;2023-06-22T09:17:06;25.70;58.20
68922;DHT22;55959;51.244;5.724;2023-06-22T09:19:32;25.70;58.00
68922;DHT22;55959;51.244;5.724;2023-06-22T09:21:58;25.70;57.90
68922;DHT22;55959;51.244;5.724;2023-06-22T09:24:24;25.70;58.00
68922;DHT22;55959;51.244;5.724;2023-06-22T09:26:50;25.80;57.40
68922;DHT22;55959;51.244;5.724;2023-06-22T09:29:16;25.80;57.20
68922;DHT22;55959;51.244;5.724;2023-06-22T09:31:42;25.80;56.80
68922;DHT22;55959;51.244;5.724;2023-06-22T09:34:07;25.80;56.80
68922;DHT22;55959;51.244;5.724;2023-06-22T09:36:33;25.90;56.80
68922;DHT22;55959;51.244;5.724;2023-06-22T09:38:59;25.90;56.70
68922;DHT22;55959;51.244;5.724;2023-06-22T09:41:31;25.90;56.60
68922;DHT22;55959;51.244;5.724;2023-06-22T09:43:56;25.90;56.70
68922;DHT22;55959;51.244;5.724;2023-06-22T09:46:23;25.90;56.60
68922;DHT22;55959;51.244;5.724;2023-06-22T09:48:53;25.90;56.60
68922;DHT22;55959;51.244;5.724;2023-06-22T09:51:19;25.90;56.70
68922;DHT22;55959;51.244;5.724;2023-06-22T09:53:47;25.90;56.90
68922;DHT22;55959;51.244;5.724;2023-06-22T09:56:13;26.00;57.10
68922;DHT22;55959;51.244;5.724;2023-06-22T09:58:44;26.00;57.10
68922;DHT22;55959;51.244;5.724;2023-06-22T10:01:11;26.00;57.20
68922;DHT22;55959;51.244;5.724;2023-06-22T10:03:38;26.00;57.10
68922;DHT22;55959;51.244;5.724;2023-06-22T10:06:04;26.10;57.10
68922;DHT22;55959;51.244;5.724;2023-06-22T10:08:29;26.10;57.10
68922;DHT22;55959;51.244;5.724;2023-06-22T10:10:55;26.20;57.10
68922;DHT22;55959;51.244;5.724;2023-06-22T10:13:21;26.20;57.20
68922;DHT22;55959;51.244;5.724;2023-06-22T10:15:47;26.20;57.00
68922;DHT22;55959;51.244;5.724;2023-06-22T10:18:16;26.30;57.00
68922;DHT22;55959;51.244;5.724;2023-06-22T10:20:43;26.30;56.80
68922;DHT22;55959;51.244;5.724;2023-06-22T10:23:09;26.30;57.00
68922;DHT22;55959;51.244;5.724;2023-06-22T10:25:38;26.30;57.70
68922;DHT22;55959;51.244;5.724;2023-06-22T10:28:03;26.40;57.10
68922;DHT22;55959;51.244;5.724;2023-06-22T10:30:29;26.40;57.10
68922;DHT22;55959;51.244;5.724;2023-06-22T10:32:55;26.40;57.20
68922;DHT22;55959;51.244;5.724;2023-06-22T10:35:21;26.50;57.40
68922;DHT22;55959;51.244;5.724;2023-06-22T10:37:47;26.50;57.50
68922;DHT22;55959;51.244;5.724;2023-06-22T10:40:14;26.60;57.50
68922;DHT22;55959;51.244;5.724;2023-06-22T10:42:41;26.60;57.50
68922;DHT22;55959;51.244;5.724;2023-06-22T10:45:08;26.60;57.30
68922;DHT22;55959;51.244;5.724;2023-06-22T10:47:34;26.60;57.30
68922;DHT22;55959;51.244;5.724;2023-06-22T10:50:01;26.60;57.30
68922;DHT22;55959;51.244;5.724;2023-06-22T10:52:27;26.60;57.30
68922;DHT22;55959;51.244;5.724;2023-06-22T10:54:53;26.60;57.30
68922;DHT22;55959;51.244;5.724;2023-06-22T10:57:19;26.60;57.70
68922;DHT22;55959;51.244;5.724;2023-06-22T10:59:45;26.60;58.20
68922;DHT22;55959;51.244;5.724;2023-06-22T11:02:11;26.60;58.50
68922;DHT22;55959;51.244;5.724;2023-06-22T11:04:37;26.60;58.90
68922;DHT22;55959;51.244;5.724;2023-06-22T11:07:03;26.50;59.20
68922;DHT22;55959;51.244;5.724;2023-06-22T11:09:28;26.50;59.30
68922;DHT22;55959;51.244;5.724;2023-06-22T11:11:55;26.50;59.50
68922;DHT22;55959;51.244;5.724;2023-06-22T11:14:21;26.40;59.80
68922;DHT22;55959;51.244;5.724;2023-06-22T11:16:47;26.40;60.20
68922;DHT22;55959;51.244;5.724;2023-06-22T11:19:13;26.30;60.60
68922;DHT22;55959;51.244;5.724;2023-06-22T11:21:39;26.30;61.00
68922;DHT22;55959;51.244;5.724;2023-06-22T11:24:06;26.20;61.30
68922;DHT22;55959;51.244;5.724;2023-06-22T11:26:32;26.20;61.40
68922;DHT22;55959;51.244;5.724;2023-06-22T11:28:58;26.10;61.70
68922;DHT22;55959;51.244;5.724;2023-06-22T11:31:25;26.10;61.80
68922;DHT22;55959;51.244;5.724;2023-06-22T11:33:51;26.00;62.10
68922;DHT22;55959;51.244;5.724;2023-06-22T11:36:17;26.00;62.40
68922;DHT22;55959;51.244;5.724;2023-06-22T11:38:43;25.90;62.80
68922;DHT22;55959;51.244;5.724;2023-06-22T11:41:10;25.90;63.60
68922;DHT22;55959;51.244;5.724;2023-06-22T11:43:36;25.90;63.90
68922;DHT22;55959;51.244;5.724;2023-06-22T11:46:05;25.90;64.20
68922;DHT22;55959;51.244;5.724;2023-06-22T11:48:31;25.90;64.70
68922;DHT22;55959;51.244;5.724;2023-06-22T11:50:57;25.90;64.80
68922;DHT22;55959;51.244;5.724;2023-06-22T11:53:25;25.90;65.30
68922;DHT22;55959;51.244;5.724;2023-06-22T11:55:52;25.80;65.00
68922;DHT22;55959;51.244;5.724;2023-06-22T11:58:19;25.80;65.10
68922;DHT22;55959;51.244;5.724;2023-06-22T12:00:45;25.80;65.10
68922;DHT22;55959;51.244;5.724;2023-06-22T12:03:11;25.80;65.40
68922;DHT22;55959;51.244;5.724;2023-06-22T12:05:38;25.80;65.50
68922;DHT22;55959;51.244;5.724;2023-06-22T12:08:04;25.80;65.60
68922;DHT22;55959;51.244;5.724;2023-06-22T12:10:30;25.70;65.20
68922;DHT22;55959;51.244;5.724;2023-06-22T12:12:56;25.70;65.50
68922;DHT22;55959;51.244;5.724;2023-06-22T12:15:23;25.70;65.30
68922;DHT22;55959;51.244;5.724;2023-06-22T12:17:49;25.70;65.10
68922;DHT22;55959;51.244;5.724;2023-06-22T12:20:15;25.60;65.00
68922;DHT22;55959;51.244;5.724;2023-06-22T12:22:41;25.60;65.30
68922;DHT22;55959;51.244;5.724;2023-06-22T12:25:08;25.60;65.10
68922;DHT22;55959;51.244;5.724;2023-06-22T12:27:35;25.60;65.30
68922;DHT22;55959;51.244;5.724;2023-06-22T12:30:01;25.50;65.20
68922;DHT22;55959;51.244;5.724;2023-06-22T12:32:27;25.50;65.20
68922;DHT22;55959;51.244;5.724;2023-06-22T12:34:53;25.50;65.20
68922;DHT22;55959;51.244;5.724;2023-06-22T12:37:18;25.50;64.80
68922;DHT22;55959;51.244;5.724;2023-06-22T12:39:44;25.50;64.50
68922;DHT22;55959;51.244;5.724;2023-06-22T12:42:10;25.40;64.40
68922;DHT22;55959;51.244;5.724;2023-06-22T12:44:38;25.40;64.60
68922;DHT22;55959;51.244;5.724;2023-06-22T12:47:05;25.40;64.30
68922;DHT22;55959;51.244;5.724;2023-06-22T12:49:31;25.40;64.30
68922;DHT22;55959;51.244;5.724;2023-06-22T12:51:56;25.30;64.40
68922;DHT22;55959;51.244;5.724;2023-06-22T12:54:22;25.30;64.90
68922;DHT22;55959;51.244;5.724;2023-06-22T12:56:50;25.30;65.30
68922;DHT22;55959;51.244;5.724;2023-06-22T12:59:16;25.30;65.30
68922;DHT22;55959;51.244;5.724;2023-06-22T13:01:43;25.20;65.30
68922;DHT22;55959;51.244;5.724;2023-06-22T13:04:11;25.20;65.40
68922;DHT22;55959;51.244;5.724;2023-06-22T13:06:40;25.20;65.50
68922;DHT22;55959;51.244;5.724;2023-06-22T13:09:07;25.10;65.70
68922;DHT22;55959;51.244;5.724;2023-06-22T13:11:34;25.10;65.70
68922;DHT22;55959;51.244;5.724;2023-06-22T13:13:59;25.10;65.80
68922;DHT22;55959;51.244;5.724;2023-06-22T13:16:25;25.10;65.90
68922;DHT22;55959;51.244;5.724;2023-06-22T13:18:51;25.00;65.80
68922;DHT22;55959;51.244;5.724;2023-06-22T13:21:16;25.00;66.00
68922;DHT22;55959;51.244;5.724;2023-06-22T13:23:42;25.00;66.10
68922;DHT22;55959;51.244;5.724;2023-06-22T13:26:08;25.00;66.30
68922;DHT22;55959;51.244;5.724;2023-06-22T13:28:34;24.90;66.40
68922;DHT22;55959;51.244;5.724;2023-06-22T13:30:59;25.00;66.60
68922;DHT22;55959;51.244;5.724;2023-06-22T13:33:25;25.00;66.20
68922;DHT22;55959;51.244;5.724;2023-06-22T13:35:51;24.90;66.10
68922;DHT22;55959;51.244;5.724;2023-06-22T13:38:17;24.90;66.00
68922;DHT22;55959;51.244;5.724;2023-06-22T13:40:43;24.90;65.80
68922;DHT22;55959;51.244;5.724;2023-06-22T13:43:09;24.80;65.50
68922;DHT22;55959;51.244;5.724;2023-06-22T13:45:34;24.90;65.40
68922;DHT22;55959;51.244;5.724;2023-06-22T13:48:00;24.80;65.50
68922;DHT22;55959;51.244;5.724;2023-06-22T13:50:26;24.70;65.30
68922;DHT22;55959;51.244;5.724;2023-06-22T13:52:52;24.70;65.60
68922;DHT22;55959;51.244;5.724;2023-06-22T13:55:18;24.70;65.90
68922;DHT22;55959;51.244;5.724;2023-06-22T13:57:46;24.60;66.00
68922;DHT22;55959;51.244;5.724;2023-06-22T14:00:12;24.60;66.30
68922;DHT22;55959;51.244;5.724;2023-06-22T14:02:39;24.60;66.50
68922;DHT22;55959;51.244;5.724;2023-06-22T14:05:07;24.50;66.50
68922;DHT22;55959;51.244;5.724;2023-06-22T14:07:33;24.50;66.50
68922;DHT22;55959;51.244;5.724;2023-06-22T14:10:00;24.40;66.70
68922;DHT22;55959;51.244;5.724;2023-06-22T14:12:26;24.40;66.90
68922;DHT22;55959;51.244;5.724;2023-06-22T14:14:51;24.40;67.10
68922;DHT22;55959;51.244;5.724;2023-06-22T14:17:17;24.40;67.30
68922;DHT22;55959;51.244;5.724;2023-06-22T14:19:49;24.30;67.40
68922;DHT22;55959;51.244;5.724;2023-06-22T14:22:17;24.30;67.50
68922;DHT22;55959;51.244;5.724;2023-06-22T14:24:43;24.30;67.60
68922;DHT22;55959;51.244;5.724;2023-06-22T14:27:08;24.20;67.70
68922;DHT22;55959;51.244;5.724;2023-06-22T14:29:35;24.20;67.90
68922;DHT22;55959;51.244;5.724;2023-06-22T14:32:01;24.10;67.90
68922;DHT22;55959;51.244;5.724;2023-06-22T14:34:26;24.10;68.10
68922;DHT22;55959;51.244;5.724;2023-06-22T14:36:52;24.10;68.30
68922;DHT22;55959;51.244;5.724;2023-06-22T14:39:18;24.10;68.50
68922;DHT22;55959;51.244;5.724;2023-06-22T14:41:43;24.00;68.60
68922;DHT22;55959;51.244;5.724;2023-06-22T14:44:09;24.00;68.70
68922;DHT22;55959;51.244;5.724;2023-06-22T14:46:35;23.90;68.80
68922;DHT22;55959;51.244;5.724;2023-06-22T14:49:01;23.90;68.90
68922;DHT22;55959;51.244;5.724;2023-06-22T14:51:26;23.90;69.20
68922;DHT22;55959;51.244;5.724;2023-06-22T14:53:52;23.90;69.30
68922;DHT22;55959;51.244;5.724;2023-06-22T14:56:18;23.80;69.30
68922;DHT22;55959;51.244;5.724;2023-06-22T14:58:45;23.80;69.50
68922;DHT22;55959;51.244;5.724;2023-06-22T15:01:11;23.70;69.50
68922;DHT22;55959;51.244;5.724;2023-06-22T15:03:37;23.70;69.60
68922;DHT22;55959;51.244;5.724;2023-06-22T15:06:03;23.70;69.80
68922;DHT22;55959;51.244;5.724;2023-06-22T15:08:29;23.70;70.00
68922;DHT22;55959;51.244;5.724;2023-06-22T15:10:58;23.70;70.10
68922;DHT22;55959;51.244;5.724;2023-06-22T15:13:26;23.60;70.10
68922;DHT22;55959;51.244;5.724;2023-06-22T15:15:53;23.60;70.10
68922;DHT22;55959;51.244;5.724;2023-06-22T15:18:20;23.60;70.30
68922;DHT22;55959;51.244;5.724;2023-06-22T15:20:45;23.60;70.30
68922;DHT22;55959;51.244;5.724;2023-06-22T15:23:12;23.50;70.30
68922;DHT22;55959;51.244;5.724;2023-06-22T15:25:39;23.50;70.50
68922;DHT22;55959;51.244;5.724;2023-06-22T15:28:05;23.50;70.70
68922;DHT22;55959;51.244;5.724;2023-06-22T15:30:31;23.40;70.60